Strong, Arkansas
Current Conditions -  °F | °C
As of 3:53 AM on Saturday 29 Nov 2014 (Local Time) from KELD Reporting Station
Overcast Overcast  
Wind Chill: 55°   Ceiling: 1200
Heat Index: 55°   Visibility: 10mi
Dew Point: 52°   Wind: 7mph
Humidity: 89%   Direction: 160°SSE
Pressure: 30.06"   Gusts: NA
Location:  33.11°N, 92.33°W
Report Text: KELD 290953Z AUTO 16006KT 10SM OVC012 13/11 A3006 RMK AO2 SLP176 T01280111
Loading
Personal Weather Stations






























Interactive Weather Map New forecast layout! Learn more

10-Day Weather Forecast

Advertisements
Track Severe Weather on mobile